createdAt,value
2022-10-05T00:00:22.791Z,83.63
2022-10-05T00:02:54.733Z,83.58
2022-10-05T00:05:31.291Z,83.41
2022-10-05T00:08:14.357Z,83.70
2022-10-05T00:10:42.452Z,83.76
2022-10-05T00:13:19.445Z,83.55
2022-10-05T00:15:47.871Z,83.66
2022-10-05T00:18:22.664Z,83.45
2022-10-05T00:20:57.295Z,83.64
2022-10-05T00:23:27.529Z,84.13
2022-10-05T00:25:54.381Z,83.74
2022-10-05T00:28:25.358Z,83.76
2022-10-05T00:30:59.345Z,83.97
2022-10-05T00:33:30.297Z,83.81
2022-10-05T00:35:58.845Z,83.66
2022-10-05T00:38:28.485Z,84.06
2022-10-05T00:41:18.778Z,83.88
2022-10-05T00:44:17.108Z,84.17
2022-10-05T00:46:54.829Z,84.03
2022-10-05T00:49:39.651Z,84.20
2022-10-05T00:52:19.666Z,83.95
2022-10-05T00:54:54.855Z,83.92
2022-10-05T00:57:33.889Z,84.13
2022-10-05T01:00:06.662Z,84.27
2022-10-05T01:02:44.686Z,84.19
2022-10-05T01:05:24.493Z,84.02
2022-10-05T01:08:00.478Z,84.08
2022-10-05T01:10:33.586Z,84.01
2022-10-05T01:13:12.209Z,84.04
2022-10-05T01:15:46.740Z,83.93
2022-10-05T01:18:21.588Z,83.87
2022-10-05T01:21:01.689Z,83.92
2022-10-05T01:23:59.920Z,83.91
2022-10-05T01:26:44.043Z,83.88
2022-10-05T01:29:24.737Z,84.02
2022-10-05T01:31:59.693Z,84.07
2022-10-05T01:34:36.181Z,84.09
2022-10-05T01:37:10.562Z,83.99
2022-10-05T01:39:46.213Z,84.19
2022-10-05T01:42:21.888Z,84.34
2022-10-05T01:45:01.587Z,84.43
2022-10-05T01:47:36.954Z,84.76
2022-10-05T01:50:09.842Z,84.40
2022-10-05T01:52:43.902Z,84.47
2022-10-05T01:55:22.868Z,84.46
2022-10-05T01:58:09.311Z,85.13
2022-10-05T02:00:56.449Z,84.83
2022-10-05T02:03:35.699Z,84.79
2022-10-05T02:06:12.527Z,84.93
2022-10-05T02:08:49.812Z,85.11
2022-10-05T02:11:24.472Z,85.83
2022-10-05T02:13:57.406Z,85.47
2022-10-05T02:16:42.550Z,85.54
2022-10-05T02:19:22.291Z,85.29
2022-10-05T02:21:55.460Z,85.52
2022-10-05T02:24:25.148Z,85.45
2022-10-05T02:26:55.545Z,85.28
2022-10-05T02:29:29.622Z,85.22
2022-10-05T02:32:18.659Z,85.08
2022-10-05T02:34:46.178Z,84.99
2022-10-05T02:37:29.023Z,85.22
2022-10-05T02:40:12.666Z,85.00
2022-10-05T02:42:50.771Z,85.34
2022-10-05T02:45:30.280Z,85.25
2022-10-05T02:48:11.051Z,85.20
2022-10-05T02:50:49.570Z,85.43
2022-10-05T02:53:25.100Z,84.90
2022-10-05T02:56:02.982Z,85.22
2022-10-05T02:58:41.205Z,85.58
2022-10-05T03:01:17.214Z,85.09
2022-10-05T03:03:51.707Z,85.28
2022-10-05T03:06:24.954Z,85.07
2022-10-05T03:08:59.958Z,84.94
2022-10-05T03:11:41.073Z,85.18
2022-10-05T03:14:14.983Z,84.90
2022-10-05T03:16:52.136Z,84.81
2022-10-05T03:19:52.515Z,84.94
2022-10-05T03:22:29.197Z,84.95
2022-10-05T03:25:19.482Z,84.77
2022-10-05T03:27:54.234Z,84.73
2022-10-05T03:30:24.893Z,84.68
2022-10-05T03:33:00.159Z,84.89
2022-10-05T03:35:41.099Z,84.81
2022-10-05T03:38:17.617Z,84.85
2022-10-05T03:40:49.394Z,84.89
2022-10-05T03:43:35.042Z,84.62
2022-10-05T03:46:13.404Z,84.71
2022-10-05T03:48:47.131Z,84.77
2022-10-05T03:51:23.555Z,84.57
2022-10-05T03:53:57.135Z,84.67
2022-10-05T03:56:34.931Z,84.67
2022-10-05T03:59:14.624Z,84.51
2022-10-05T04:01:48.564Z,84.33
2022-10-05T04:04:23.287Z,84.50
2022-10-05T04:06:58.566Z,84.61
2022-10-05T04:09:29.930Z,84.52
2022-10-05T04:12:04.740Z,84.65
2022-10-05T04:14:41.460Z,84.62
2022-10-05T04:17:12.646Z,84.75
2022-10-05T04:19:46.003Z,84.77
2022-10-05T04:22:18.507Z,84.48
2022-10-05T04:24:49.567Z,84.61
2022-10-05T04:27:23.872Z,84.37
2022-10-05T04:29:57.478Z,84.45
2022-10-05T04:32:36.937Z,84.29
2022-10-05T04:35:40.521Z,84.29
2022-10-05T04:38:25.352Z,84.10
2022-10-05T04:41:06.412Z,84.53
2022-10-05T04:43:40.934Z,84.71
2022-10-05T04:46:18.539Z,84.50
2022-10-05T04:49:14.013Z,84.42
2022-10-05T04:51:51.382Z,84.66
2022-10-05T04:54:32.258Z,84.67
2022-10-05T04:57:06.795Z,84.60
2022-10-05T05:00:09.234Z,84.70
2022-10-05T05:02:52.049Z,85.03
2022-10-05T05:05:30.723Z,84.87
2022-10-05T05:08:10.040Z,84.66
2022-10-05T05:11:04.650Z,85.08
2022-10-05T05:13:58.318Z,84.80
2022-10-05T05:16:33.911Z,84.76
2022-10-05T05:19:35.359Z,84.67
2022-10-05T05:22:13.787Z,84.88
2022-10-05T05:25:18.293Z,84.73
2022-10-05T05:27:54.526Z,84.77
2022-10-05T05:30:23.793Z,84.88
2022-10-05T05:33:19.294Z,84.75
2022-10-05T05:36:06.726Z,84.87
2022-10-05T05:38:41.514Z,84.87
2022-10-05T05:41:20.408Z,84.89
2022-10-05T05:44:16.558Z,85.00
2022-10-05T05:47:09.904Z,84.79
2022-10-05T05:50:06.418Z,84.81
2022-10-05T05:52:45.655Z,84.96
2022-10-05T05:55:20.932Z,84.67
2022-10-05T05:57:54.473Z,84.64
2022-10-05T06:00:35.694Z,84.67
2022-10-05T06:03:08.342Z,84.93
2022-10-05T06:05:40.534Z,84.41
2022-10-05T06:08:16.393Z,84.55
2022-10-05T06:10:49.542Z,84.35
2022-10-05T06:13:21.676Z,84.51
2022-10-05T06:16:20.761Z,84.31
2022-10-05T06:19:20.372Z,84.33
2022-10-05T06:22:11.534Z,84.39
2022-10-05T06:24:44.039Z,84.51
2022-10-05T06:27:26.083Z,84.29
2022-10-05T06:30:14.205Z,84.06
2022-10-05T06:33:16.507Z,83.67
2022-10-05T06:35:58.464Z,84.23
2022-10-05T06:38:53.348Z,83.88
2022-10-05T06:41:30.522Z,83.96
2022-10-05T06:44:00.676Z,83.89
2022-10-05T06:46:34.468Z,83.62
2022-10-05T06:49:17.365Z,83.43
2022-10-05T06:51:53.493Z,83.49
2022-10-05T06:54:57.263Z,83.28
2022-10-05T06:58:02.518Z,83.47
2022-10-05T07:00:42.591Z,83.44
2022-10-05T07:03:36.399Z,83.18
2022-10-05T07:06:14.501Z,83.29
2022-10-05T07:09:02.586Z,83.23
2022-10-05T07:11:58.347Z,83.47
2022-10-05T07:14:49.184Z,83.24
2022-10-05T07:17:36.179Z,82.75
2022-10-05T07:20:15.289Z,82.92
2022-10-05T07:23:02.313Z,82.96
2022-10-05T07:25:35.967Z,83.05
2022-10-05T07:28:10.159Z,82.26
2022-10-05T07:30:49.467Z,82.63
2022-10-05T07:33:31.164Z,82.46
2022-10-05T07:36:11.749Z,82.32
2022-10-05T07:38:47.703Z,82.42
2022-10-05T07:41:19.365Z,81.93
2022-10-05T07:44:02.775Z,82.06
2022-10-05T07:46:40.882Z,81.73
2022-10-05T07:49:15.442Z,81.89
2022-10-05T07:51:52.153Z,81.53
2022-10-05T07:54:24.417Z,81.46
2022-10-05T07:56:58.747Z,81.24
2022-10-05T07:59:36.620Z,80.90
2022-10-05T08:02:40.750Z,80.91
2022-10-05T08:08:39.956Z,80.86
2022-10-05T08:11:33.655Z,80.76
2022-10-05T08:14:22.418Z,80.17
2022-10-05T08:16:58.805Z,79.93
2022-10-05T08:19:34.066Z,79.75
2022-10-05T08:22:07.891Z,79.60
2022-10-05T08:24:43.435Z,79.57
2022-10-05T08:27:27.939Z,79.12
2022-10-05T08:29:59.760Z,78.87
2022-10-05T08:32:32.636Z,78.43
2022-10-05T08:35:15.820Z,78.75
2022-10-05T08:37:45.162Z,78.70
2022-10-05T08:40:48.823Z,78.00
2022-10-05T08:43:35.447Z,78.09
2022-10-05T08:46:36.419Z,77.70
2022-10-05T08:49:28.969Z,77.89
2022-10-05T08:52:24.733Z,77.72
2022-10-05T08:55:22.973Z,77.46
2022-10-05T08:58:26.366Z,77.44
2022-10-05T09:01:11.342Z,77.47
2022-10-05T09:04:19.457Z,77.19
2022-10-05T09:07:27.403Z,76.79
2022-10-05T09:10:30.368Z,75.81
2022-10-05T09:13:37.527Z,76.48
2022-10-05T09:20:12.276Z,76.48
2022-10-05T09:23:27.984Z,76.74
2022-10-05T09:26:12.755Z,75.82
2022-10-05T09:29:03.510Z,76.08
2022-10-05T09:32:04.381Z,75.58
2022-10-05T09:38:31.905Z,75.14
2022-10-05T09:41:53.011Z,74.77
2022-10-05T09:45:27.088Z,74.39
2022-10-05T09:48:56.886Z,74.42
2022-10-05T09:51:58.157Z,75.51
2022-10-05T09:55:11.833Z,75.08
2022-10-05T09:58:23.576Z,75.17
2022-10-05T10:01:35.260Z,74.56
2022-10-05T10:07:57.888Z,72.96
2022-10-05T10:10:51.648Z,72.57
2022-10-05T10:13:53.983Z,72.98
2022-10-05T10:16:51.366Z,72.71
2022-10-05T10:19:38.940Z,73.58
2022-10-05T10:22:43.127Z,72.84
2022-10-05T10:25:55.727Z,72.62
2022-10-05T10:28:50.271Z,73.04
2022-10-05T10:31:45.883Z,72.59
2022-10-05T10:34:48.138Z,73.07
2022-10-05T10:37:37.199Z,73.02
2022-10-05T10:40:21.199Z,73.06
2022-10-05T10:43:09.020Z,73.12
2022-10-05T10:45:50.604Z,72.65
2022-10-05T10:48:31.879Z,72.98
2022-10-05T10:51:12.612Z,73.40
2022-10-05T10:54:07.259Z,72.66
2022-10-05T10:57:07.239Z,72.26
2022-10-05T11:00:05.601Z,72.28
2022-10-05T11:03:03.970Z,72.45
2022-10-05T11:06:03.177Z,72.08
2022-10-05T11:08:56.356Z,72.40
2022-10-05T11:11:38.831Z,72.42
2022-10-05T11:14:41.118Z,72.56
2022-10-05T11:17:30.586Z,72.27
2022-10-05T11:20:25.366Z,72.12
2022-10-05T11:23:00.907Z,71.88
2022-10-05T11:26:01.913Z,71.83
2022-10-05T11:29:01.183Z,72.21
2022-10-05T11:31:58.857Z,72.33
2022-10-05T11:34:48.818Z,72.31
2022-10-05T11:37:40.276Z,72.62
2022-10-05T11:40:57.799Z,72.52
2022-10-05T11:43:54.836Z,72.57
2022-10-05T11:46:27.809Z,72.59
2022-10-05T11:49:15.702Z,72.30
2022-10-05T11:51:53.261Z,72.42
2022-10-05T11:55:09.439Z,72.26
2022-10-05T11:57:36.704Z,72.48
2022-10-05T12:00:12.803Z,72.51
2022-10-05T12:03:01.075Z,72.29
2022-10-05T12:05:38.156Z,72.38
2022-10-05T12:08:45.919Z,72.85
2022-10-05T12:12:01.908Z,72.39
2022-10-05T12:14:39.328Z,72.77
2022-10-05T12:17:19.467Z,72.37
2022-10-05T12:19:51.412Z,72.31
2022-10-05T12:22:29.340Z,72.44
2022-10-05T12:25:22.798Z,72.39
2022-10-05T12:31:04.794Z,72.39
2022-10-05T12:33:47.727Z,72.54
2022-10-05T12:36:23.028Z,72.67
2022-10-05T12:39:22.360Z,72.72
2022-10-05T12:45:28.958Z,72.62
2022-10-05T12:51:03.990Z,72.55
2022-10-05T12:53:49.164Z,72.80
2022-10-05T12:56:36.002Z,72.83
2022-10-05T12:59:43.930Z,73.23
2022-10-05T13:02:49.173Z,73.11
2022-10-05T13:15:45.173Z,73.73
2022-10-05T13:18:29.946Z,73.47
2022-10-05T13:21:17.618Z,73.58
2022-10-05T13:23:59.615Z,73.47
2022-10-05T13:26:33.104Z,73.61
2022-10-05T13:29:17.525Z,73.34
2022-10-05T13:31:51.508Z,73.19
2022-10-05T13:34:38.862Z,72.96
2022-10-05T13:37:34.762Z,72.35
2022-10-05T13:40:42.072Z,72.18
2022-10-05T13:43:40.738Z,72.28
2022-10-05T13:46:18.645Z,71.91
2022-10-05T13:49:09.998Z,71.68
2022-10-05T13:51:45.489Z,71.79
2022-10-05T13:54:29.245Z,71.61
2022-10-05T13:57:07.686Z,71.18
2022-10-05T13:59:42.973Z,71.56
2022-10-05T14:02:22.458Z,71.28
2022-10-05T14:05:41.728Z,71.02
2022-10-05T14:08:18.963Z,71.26
2022-10-05T14:10:51.417Z,71.02
2022-10-05T14:14:38.158Z,70.29
2022-10-05T14:17:33.398Z,70.75
2022-10-05T14:20:10.467Z,70.83
2022-10-05T14:22:43.721Z,70.29
2022-10-05T14:25:24.116Z,70.60
2022-10-05T14:28:03.657Z,70.31
2022-10-05T14:30:40.316Z,70.33
2022-10-05T14:33:15.420Z,70.49
2022-10-05T14:35:53.373Z,70.67
2022-10-05T14:38:26.877Z,70.86
2022-10-05T14:41:15.606Z,70.71
2022-10-05T14:43:54.354Z,70.84
2022-10-05T14:47:27.144Z,70.51
2022-10-05T15:00:20.628Z,70.56
2022-10-05T15:03:10.793Z,70.75
2022-10-05T15:05:46.182Z,71.20
2022-10-05T15:08:40.527Z,71.18
2022-10-05T15:11:11.343Z,70.81
2022-10-05T15:13:52.980Z,71.23
2022-10-05T15:16:24.939Z,70.77
2022-10-05T15:19:03.017Z,70.76
2022-10-05T15:21:59.499Z,71.23
2022-10-05T15:24:43.767Z,71.06
2022-10-05T15:27:24.136Z,70.92
2022-10-05T15:30:21.912Z,71.06
2022-10-05T15:33:41.980Z,71.16
2022-10-05T15:36:23.240Z,70.96
2022-10-05T15:39:05.388Z,70.57
2022-10-05T15:42:16.499Z,71.09
2022-10-05T15:44:57.213Z,70.87
2022-10-05T15:47:35.690Z,70.70
2022-10-05T15:50:15.602Z,70.86
2022-10-05T15:52:50.960Z,70.82
2022-10-05T15:55:30.100Z,70.98
2022-10-05T15:58:15.437Z,70.33
2022-10-05T16:00:47.271Z,70.55
2022-10-05T16:03:26.077Z,70.47
2022-10-05T16:06:07.675Z,70.36
2022-10-05T16:09:01.093Z,70.16
2022-10-05T16:11:53.224Z,70.29
2022-10-05T16:14:31.367Z,70.09
2022-10-05T16:17:19.151Z,70.26
2022-10-05T16:19:59.029Z,70.19
2022-10-05T16:22:45.979Z,70.23
2022-10-05T16:25:21.152Z,70.16
2022-10-05T16:28:05.549Z,70.05
2022-10-05T16:30:52.528Z,70.45
2022-10-05T16:33:28.897Z,70.31
2022-10-05T16:36:09.308Z,70.30
2022-10-05T16:38:47.188Z,70.69
2022-10-05T16:41:22.779Z,70.89
2022-10-05T16:43:58.389Z,70.85
2022-10-05T16:46:33.451Z,70.90
2022-10-05T16:49:11.430Z,71.12
2022-10-05T16:54:47.890Z,70.93
2022-10-05T16:57:24.514Z,71.06
2022-10-05T17:00:22.285Z,70.97
2022-10-05T17:03:10.370Z,71.20
2022-10-05T17:05:58.453Z,71.04
2022-10-05T17:08:47.691Z,71.14
2022-10-05T17:11:29.809Z,71.18
2022-10-05T17:17:26.956Z,71.03
2022-10-05T17:20:13.236Z,71.12
2022-10-05T17:22:49.662Z,71.42
2022-10-05T17:25:29.215Z,71.45
2022-10-05T17:28:19.935Z,71.26
2022-10-05T17:31:22.632Z,71.62
2022-10-05T17:34:28.482Z,71.53
2022-10-05T17:37:18.325Z,71.71
2022-10-05T17:43:24.300Z,71.81
2022-10-05T17:46:10.373Z,71.84
2022-10-05T17:49:13.422Z,72.52
2022-10-05T17:52:22.669Z,72.32
2022-10-05T17:55:27.998Z,72.54
2022-10-05T17:58:22.037Z,72.05
2022-10-05T18:01:23.937Z,72.54
2022-10-05T18:03:53.459Z,73.21
2022-10-05T18:06:50.789Z,72.85
2022-10-05T18:09:29.839Z,73.03
2022-10-05T18:12:29.055Z,73.33
2022-10-05T18:15:40.100Z,73.08
2022-10-05T18:18:53.426Z,73.15
2022-10-05T18:21:38.268Z,73.34
2022-10-05T18:24:46.618Z,73.73
2022-10-05T18:27:35.321Z,73.89
2022-10-05T18:30:18.127Z,74.42
2022-10-05T18:33:09.700Z,74.19
2022-10-05T18:35:51.888Z,74.64
2022-10-05T18:38:33.119Z,75.04
2022-10-05T18:41:01.892Z,77.05
2022-10-05T18:43:35.416Z,76.33
2022-10-05T18:46:22.561Z,77.87
2022-10-05T18:49:03.910Z,78.12
2022-10-05T18:51:40.966Z,77.88
2022-10-05T18:54:19.193Z,78.39
2022-10-05T18:56:50.035Z,78.77
2022-10-05T18:59:37.886Z,79.25
2022-10-05T19:02:22.844Z,81.91
2022-10-05T19:05:18.977Z,82.00
2022-10-05T19:08:06.836Z,82.63
2022-10-05T19:10:42.581Z,83.21
2022-10-05T19:13:22.485Z,87.74
2022-10-05T19:16:02.379Z,86.97
2022-10-05T19:18:51.630Z,89.38
2022-10-05T19:21:38.325Z,88.41
2022-10-05T19:24:31.259Z,88.65
2022-10-05T19:27:07.812Z,89.47
2022-10-05T19:29:51.530Z,92.16
2022-10-05T19:32:29.516Z,89.69
2022-10-05T19:35:22.203Z,91.34
2022-10-05T19:38:05.687Z,92.45
2022-10-05T19:40:47.602Z,91.52
2022-10-05T19:43:40.205Z,92.30
2022-10-05T19:49:01.201Z,93.02
2022-10-05T19:51:35.876Z,94.30
2022-10-05T19:54:13.977Z,92.31
2022-10-05T19:56:56.667Z,94.59
2022-10-05T19:59:30.977Z,92.82
2022-10-05T20:02:01.059Z,93.88
2022-10-05T20:04:38.190Z,93.07
2022-10-05T20:07:14.518Z,92.88
2022-10-05T20:10:00.870Z,93.68
2022-10-05T20:12:54.108Z,93.69
2022-10-05T20:15:23.563Z,94.78
2022-10-05T20:17:50.500Z,95.66
2022-10-05T20:20:35.855Z,94.78
2022-10-05T20:23:22.680Z,95.81
2022-10-05T20:25:50.083Z,95.51
2022-10-05T20:28:32.205Z,95.68
2022-10-05T20:31:01.340Z,95.74
2022-10-05T20:33:38.639Z,95.64
2022-10-05T20:36:14.537Z,95.33
2022-10-05T20:39:45.101Z,95.40
2022-10-05T20:42:18.561Z,94.88
2022-10-05T20:44:57.119Z,95.98
2022-10-05T20:47:40.483Z,95.87
2022-10-05T20:50:25.652Z,96.00
2022-10-05T20:52:59.723Z,94.34
2022-10-05T20:55:27.564Z,93.38
2022-10-05T20:57:55.780Z,92.54
2022-10-05T21:00:24.265Z,93.20
2022-10-05T21:02:53.921Z,93.53
2022-10-05T21:05:23.046Z,94.48
2022-10-05T21:07:51.295Z,95.33
2022-10-05T21:10:18.092Z,95.24
2022-10-05T21:12:45.247Z,95.54
2022-10-05T21:15:12.372Z,96.27
2022-10-05T21:17:43.657Z,96.03
2022-10-05T21:20:11.748Z,96.26
2022-10-05T21:22:38.853Z,95.84
2022-10-05T21:25:08.947Z,95.34
2022-10-05T21:27:35.682Z,95.34
2022-10-05T21:30:02.774Z,94.72
2022-10-05T21:32:29.975Z,94.45
2022-10-05T21:34:59.699Z,94.12
2022-10-05T21:37:26.590Z,93.32
2022-10-05T21:39:53.343Z,92.86
2022-10-05T21:42:20.105Z,92.62
2022-10-05T21:44:52.486Z,92.11
2022-10-05T21:47:19.360Z,91.73
2022-10-05T21:49:46.296Z,91.37
2022-10-05T21:52:14.946Z,91.33
2022-10-05T21:54:42.044Z,91.29
2022-10-05T21:57:12.121Z,91.00
2022-10-05T21:59:43.169Z,91.05
2022-10-05T22:02:10.205Z,91.13
2022-10-05T22:04:36.933Z,91.37
2022-10-05T22:07:14.496Z,90.96
2022-10-05T22:09:47.803Z,91.58
2022-10-05T22:12:24.470Z,91.27
2022-10-05T22:14:51.269Z,91.19
2022-10-05T22:17:23.100Z,91.22
2022-10-05T22:19:50.501Z,91.48
2022-10-05T22:22:19.374Z,91.75
2022-10-05T22:24:55.335Z,91.53
2022-10-05T22:27:24.282Z,91.24
2022-10-05T22:29:58.936Z,91.48
2022-10-05T22:32:27.774Z,91.51
2022-10-05T22:34:54.822Z,91.44
2022-10-05T22:37:22.680Z,91.54
2022-10-05T22:39:51.874Z,91.53
2022-10-05T22:42:18.904Z,91.76
2022-10-05T22:44:48.424Z,91.64
2022-10-05T22:47:18.192Z,91.56
2022-10-05T22:49:44.982Z,91.45
2022-10-05T22:52:11.894Z,91.28
2022-10-05T22:54:38.684Z,91.17
2022-10-05T22:57:08.260Z,90.48
2022-10-05T22:59:35.186Z,90.13
2022-10-05T23:02:03.903Z,89.52
2022-10-05T23:04:36.853Z,88.93
2022-10-05T23:07:06.286Z,88.38
2022-10-05T23:09:33.368Z,88.04
2022-10-05T23:12:00.646Z,87.88
2022-10-05T23:14:29.985Z,87.83
2022-10-05T23:17:00.825Z,87.59
2022-10-05T23:19:29.365Z,87.87
2022-10-05T23:22:04.324Z,87.67
2022-10-05T23:24:31.903Z,87.76
2022-10-05T23:27:00.384Z,87.87
2022-10-05T23:29:29.337Z,88.01
2022-10-05T23:31:57.968Z,88.12
2022-10-05T23:34:25.273Z,88.00
2022-10-05T23:36:52.207Z,87.89
2022-10-05T23:39:19.222Z,88.19
2022-10-05T23:41:48.800Z,88.04
2022-10-05T23:44:15.685Z,88.56
2022-10-05T23:46:43.890Z,88.16
2022-10-05T23:49:11.192Z,87.81
2022-10-05T23:51:38.036Z,88.35
2022-10-05T23:54:04.994Z,88.18
2022-10-05T23:56:31.842Z,87.55
2022-10-05T23:58:58.671Z,87.71
